Medellin, Colombia

10:10 AM COT on December 07, 2016 (GMT -0500)
Poblado | | Change Station

Elev 5545 ft 6.21 °N, 75.56 °W | Updated 2 seconds ago

Mostly Cloudy
Mostly Cloudy
72.5 °F
Feels Like 77 °F
N
0.0
Wind Variable Wind from NNW
Gusts 0.0 mph

Today
High -- | Low -- °F
--% Chance of Precip.
Yesterday
High -- | Low -- °F
Precip. -- in
Pressure 30.22 in
Visibility 6.2 miles
Clouds Scattered Clouds 2500 ft
Mostly Cloudy 10000 ft
Heat Index 77 °F
Dew Point 56 °F
Humidity 57%
Rainfall 0.00 in
Snow Depth Not available.
6:00 AM 5:47 PM
First Quarter, 53% visible
METAR SKMD 071400Z 00000KT 9999 7000S SCT025 BKN100 22/17 A3022 RMK HZ
Pressure 30.22 in
Visibility 6.2 miles
Clouds Scattered Clouds 2500 ft
Mostly Cloudy 10000 ft
Heat Index 77 °F
Dew Point 56 °F
Humidity 57%
Rainfall 0.00 in
Snow Depth Not available.
6:00 AM 5:47 PM
First Quarter, 53% visible
METAR SKMD 071400Z 00000KT 9999 7000S SCT025 BKN100 22/17 A3022 RMK HZ

10-Day Weather Forecast

No radar image for this location.
×

Almanac

Astronomy

Dec. 07, 2016 Rise Set
Actual Time
Civil Twilight
Nautical Twilight
Astronomical Twilight
Moon
Length of Visible Light
Length of Day
Tomorrow will be .
, % of the Moon is Illuminated

Today's Extremes

Country Highs Country Lows

Community

WunderPhotos

Upload Photos

1,956,118 photos uploaded!

WunderBlog® & News

Nearby

Air Quality

  Air Quality AQ Index Pollutant
Not available.

Snow Depth

Station Depth Elevation

Earthquake Activity

City Distance Mag. Time & Date
Minimum magnitude displayed is 2.5.

Coastal Water Temperatures

Place Temperature

Stations

Nearby Weather Stations

Station Location Temp. Windchill Dew Point Humidity Wind Precip. Elev Updated Type